sensor_id;sensor_type;location;lat;lon;timestamp;P1;durP1;ratioP1;P2;durP2;ratioP2
63959;SDS011;50136;51.374;0.096;2023-02-28T00:07:52;4.47;;;1.80;;
63959;SDS011;50136;51.374;0.096;2023-02-28T00:17:55;6.85;;;1.75;;
63959;SDS011;50136;51.374;0.096;2023-02-28T00:27:58;6.75;;;2.10;;
63959;SDS011;50136;51.374;0.096;2023-02-28T00:38:00;9.68;;;2.75;;
63959;SDS011;50136;51.374;0.096;2023-02-28T00:48:04;9.25;;;2.17;;
63959;SDS011;50136;51.374;0.096;2023-02-28T00:58:06;7.00;;;1.77;;
63959;SDS011;50136;51.374;0.096;2023-02-28T01:08:09;6.63;;;1.73;;
63959;SDS011;50136;51.374;0.096;2023-02-28T01:18:12;15.50;;;2.72;;
63959;SDS011;50136;51.374;0.096;2023-02-28T01:28:17;6.93;;;1.90;;
63959;SDS011;50136;51.374;0.096;2023-02-28T01:38:19;3.95;;;2.30;;
63959;SDS011;50136;51.374;0.096;2023-02-28T01:48:26;7.45;;;2.08;;
63959;SDS011;50136;51.374;0.096;2023-02-28T01:58:31;7.25;;;2.13;;
63959;SDS011;50136;51.374;0.096;2023-02-28T02:08:35;9.25;;;2.65;;
63959;SDS011;50136;51.374;0.096;2023-02-28T02:18:39;10.93;;;3.45;;
63959;SDS011;50136;51.374;0.096;2023-02-28T02:39:21;16.73;;;2.65;;
63959;SDS011;50136;51.374;0.096;2023-02-28T02:49:31;6.77;;;2.27;;
63959;SDS011;50136;51.374;0.096;2023-02-28T02:59:36;6.18;;;2.08;;
63959;SDS011;50136;51.374;0.096;2023-02-28T03:09:40;7.40;;;2.10;;
63959;SDS011;50136;51.374;0.096;2023-02-28T03:19:54;5.15;;;1.85;;
63959;SDS011;50136;51.374;0.096;2023-02-28T03:30:04;2.90;;;1.42;;
63959;SDS011;50136;51.374;0.096;2023-02-28T03:40:13;6.35;;;2.13;;
63959;SDS011;50136;51.374;0.096;2023-02-28T03:50:18;7.45;;;4.00;;
63959;SDS011;50136;51.374;0.096;2023-02-28T04:00:27;8.30;;;1.95;;
63959;SDS011;50136;51.374;0.096;2023-02-28T04:10:31;6.53;;;2.13;;
63959;SDS011;50136;51.374;0.096;2023-02-28T04:20:35;9.70;;;2.38;;
63959;SDS011;50136;51.374;0.096;2023-02-28T04:30:37;6.03;;;2.38;;
63959;SDS011;50136;51.374;0.096;2023-02-28T04:40:40;6.40;;;2.67;;
63959;SDS011;50136;51.374;0.096;2023-02-28T04:50:42;12.85;;;3.38;;
63959;SDS011;50136;51.374;0.096;2023-02-28T05:00:46;8.68;;;2.30;;
63959;SDS011;50136;51.374;0.096;2023-02-28T05:10:48;6.47;;;2.50;;
63959;SDS011;50136;51.374;0.096;2023-02-28T05:20:51;13.20;;;3.05;;
63959;SDS011;50136;51.374;0.096;2023-02-28T05:30:53;4.22;;;2.65;;
63959;SDS011;50136;51.374;0.096;2023-02-28T05:40:56;5.72;;;2.67;;
63959;SDS011;50136;51.374;0.096;2023-02-28T05:50:58;10.00;;;2.80;;
63959;SDS011;50136;51.374;0.096;2023-02-28T06:01:18;8.15;;;3.38;;
63959;SDS011;50136;51.374;0.096;2023-02-28T06:11:22;8.13;;;3.65;;
63959;SDS011;50136;51.374;0.096;2023-02-28T06:21:26;17.00;;;5.22;;
63959;SDS011;50136;51.374;0.096;2023-02-28T06:31:31;6.32;;;3.00;;
63959;SDS011;50136;51.374;0.096;2023-02-28T06:41:35;5.75;;;3.75;;
63959;SDS011;50136;51.374;0.096;2023-02-28T06:51:54;6.47;;;3.20;;
63959;SDS011;50136;51.374;0.096;2023-02-28T07:01:58;20.13;;;4.38;;
63959;SDS011;50136;51.374;0.096;2023-02-28T07:12:00;17.45;;;4.55;;
63959;SDS011;50136;51.374;0.096;2023-02-28T07:22:03;10.73;;;4.60;;
63959;SDS011;50136;51.374;0.096;2023-02-28T07:32:05;11.15;;;4.63;;
63959;SDS011;50136;51.374;0.096;2023-02-28T07:42:09;10.50;;;3.97;;
63959;SDS011;50136;51.374;0.096;2023-02-28T07:52:11;9.95;;;4.20;;
63959;SDS011;50136;51.374;0.096;2023-02-28T08:02:18;10.27;;;4.97;;
63959;SDS011;50136;51.374;0.096;2023-02-28T08:12:20;9.95;;;4.25;;
63959;SDS011;50136;51.374;0.096;2023-02-28T08:22:24;6.57;;;3.28;;
63959;SDS011;50136;51.374;0.096;2023-02-28T08:32:26;7.43;;;3.15;;
63959;SDS011;50136;51.374;0.096;2023-02-28T08:42:32;10.65;;;2.58;;
63959;SDS011;50136;51.374;0.096;2023-02-28T08:52:35;3.78;;;2.60;;
63959;SDS011;50136;51.374;0.096;2023-02-28T09:02:38;11.50;;;2.75;;
63959;SDS011;50136;51.374;0.096;2023-02-28T09:12:40;5.32;;;1.90;;
63959;SDS011;50136;51.374;0.096;2023-02-28T09:22:44;7.57;;;3.92;;
63959;SDS011;50136;51.374;0.096;2023-02-28T09:32:46;7.22;;;2.05;;
63959;SDS011;50136;51.374;0.096;2023-02-28T09:42:53;12.57;;;2.50;;
63959;SDS011;50136;51.374;0.096;2023-02-28T09:52:59;5.85;;;2.28;;
63959;SDS011;50136;51.374;0.096;2023-02-28T10:13:37;10.50;;;3.40;;
63959;SDS011;50136;51.374;0.096;2023-02-28T10:23:48;5.85;;;2.13;;
63959;SDS011;50136;51.374;0.096;2023-02-28T10:33:54;8.75;;;2.53;;
63959;SDS011;50136;51.374;0.096;2023-02-28T10:44:17;14.55;;;2.90;;
63959;SDS011;50136;51.374;0.096;2023-02-28T10:54:23;4.88;;;2.85;;
63959;SDS011;50136;51.374;0.096;2023-02-28T11:04:34;10.30;;;3.80;;
63959;SDS011;50136;51.374;0.096;2023-02-28T11:14:40;8.77;;;3.55;;
63959;SDS011;50136;51.374;0.096;2023-02-28T11:24:52;5.93;;;2.47;;
63959;SDS011;50136;51.374;0.096;2023-02-28T11:35:00;5.40;;;2.47;;
63959;SDS011;50136;51.374;0.096;2023-02-28T11:55:32;4.90;;;2.58;;
63959;SDS011;50136;51.374;0.096;2023-02-28T12:05:41;4.78;;;2.80;;
63959;SDS011;50136;51.374;0.096;2023-02-28T12:26:18;5.83;;;2.50;;
63959;SDS011;50136;51.374;0.096;2023-02-28T12:36:25;6.80;;;3.13;;
63959;SDS011;50136;51.374;0.096;2023-02-28T12:46:29;9.35;;;3.22;;
63959;SDS011;50136;51.374;0.096;2023-02-28T12:56:39;5.33;;;3.00;;
63959;SDS011;50136;51.374;0.096;2023-02-28T13:06:54;5.53;;;2.73;;
63959;SDS011;50136;51.374;0.096;2023-02-28T13:17:10;3.30;;;2.17;;
63959;SDS011;50136;51.374;0.096;2023-02-28T13:37:41;9.63;;;2.15;;
63959;SDS011;50136;51.374;0.096;2023-02-28T13:47:50;5.28;;;2.10;;
63959;SDS011;50136;51.374;0.096;2023-02-28T13:58:01;6.23;;;2.80;;
63959;SDS011;50136;51.374;0.096;2023-02-28T14:08:14;8.50;;;3.30;;
63959;SDS011;50136;51.374;0.096;2023-02-28T14:18:26;3.15;;;1.60;;
63959;SDS011;50136;51.374;0.096;2023-02-28T14:28:36;7.53;;;2.92;;
63959;SDS011;50136;51.374;0.096;2023-02-28T14:38:49;7.80;;;1.70;;
63959;SDS011;50136;51.374;0.096;2023-02-28T14:48:54;3.53;;;2.33;;
63959;SDS011;50136;51.374;0.096;2023-02-28T14:58:58;3.67;;;1.83;;
63959;SDS011;50136;51.374;0.096;2023-02-28T15:09:08;2.47;;;1.52;;
63959;SDS011;50136;51.374;0.096;2023-02-28T15:19:12;6.82;;;1.58;;
63959;SDS011;50136;51.374;0.096;2023-02-28T15:29:20;3.38;;;1.38;;
63959;SDS011;50136;51.374;0.096;2023-02-28T15:39:25;4.28;;;1.52;;
63959;SDS011;50136;51.374;0.096;2023-02-28T15:49:31;3.22;;;1.58;;
63959;SDS011;50136;51.374;0.096;2023-02-28T15:59:49;5.43;;;1.55;;
63959;SDS011;50136;51.374;0.096;2023-02-28T16:09:55;2.78;;;1.27;;
63959;SDS011;50136;51.374;0.096;2023-02-28T16:19:57;6.35;;;1.63;;
63959;SDS011;50136;51.374;0.096;2023-02-28T16:30:01;3.63;;;2.00;;
63959;SDS011;50136;51.374;0.096;2023-02-28T16:40:09;8.77;;;2.40;;
63959;SDS011;50136;51.374;0.096;2023-02-28T16:50:20;6.28;;;1.60;;
63959;SDS011;50136;51.374;0.096;2023-02-28T17:00:24;7.68;;;2.25;;
63959;SDS011;50136;51.374;0.096;2023-02-28T17:10:36;11.23;;;2.35;;
63959;SDS011;50136;51.374;0.096;2023-02-28T17:20:38;4.65;;;1.25;;
63959;SDS011;50136;51.374;0.096;2023-02-28T17:30:41;6.20;;;1.40;;
63959;SDS011;50136;51.374;0.096;2023-02-28T17:40:46;3.03;;;1.45;;
63959;SDS011;50136;51.374;0.096;2023-02-28T17:50:51;1.95;;;1.15;;
63959;SDS011;50136;51.374;0.096;2023-02-28T18:00:53;5.85;;;3.33;;
63959;SDS011;50136;51.374;0.096;2023-02-28T18:11:04;4.13;;;2.07;;
63959;SDS011;50136;51.374;0.096;2023-02-28T18:21:13;4.78;;;2.15;;
63959;SDS011;50136;51.374;0.096;2023-02-28T18:31:20;8.93;;;2.42;;
63959;SDS011;50136;51.374;0.096;2023-02-28T19:01:59;5.25;;;1.95;;
63959;SDS011;50136;51.374;0.096;2023-02-28T19:34:19;6.35;;;2.85;;
63959;SDS011;50136;51.374;0.096;2023-02-28T19:44:21;9.02;;;3.78;;
63959;SDS011;50136;51.374;0.096;2023-02-28T19:54:24;8.43;;;2.13;;
63959;SDS011;50136;51.374;0.096;2023-02-28T20:04:27;6.10;;;3.17;;
63959;SDS011;50136;51.374;0.096;2023-02-28T20:24:49;10.80;;;7.65;;
63959;SDS011;50136;51.374;0.096;2023-02-28T20:34:51;12.18;;;7.05;;
63959;SDS011;50136;51.374;0.096;2023-02-28T20:55:12;15.10;;;7.10;;
63959;SDS011;50136;51.374;0.096;2023-02-28T21:16:21;12.27;;;7.22;;
63959;SDS011;50136;51.374;0.096;2023-02-28T21:26:29;13.95;;;7.10;;
63959;SDS011;50136;51.374;0.096;2023-02-28T21:36:36;7.38;;;5.03;;
63959;SDS011;50136;51.374;0.096;2023-02-28T21:46:42;6.53;;;3.85;;
63959;SDS011;50136;51.374;0.096;2023-02-28T21:56:46;9.02;;;3.80;;
63959;SDS011;50136;51.374;0.096;2023-02-28T22:06:49;8.23;;;3.70;;
63959;SDS011;50136;51.374;0.096;2023-02-28T22:16:56;6.32;;;3.78;;
63959;SDS011;50136;51.374;0.096;2023-02-28T22:26:59;8.07;;;4.53;;
63959;SDS011;50136;51.374;0.096;2023-02-28T22:37:02;9.70;;;4.75;;
63959;SDS011;50136;51.374;0.096;2023-02-28T22:47:09;11.63;;;5.60;;
63959;SDS011;50136;51.374;0.096;2023-02-28T22:57:12;6.25;;;5.18;;
63959;SDS011;50136;51.374;0.096;2023-02-28T23:07:14;11.77;;;8.30;;
63959;SDS011;50136;51.374;0.096;2023-02-28T23:17:18;18.58;;;8.30;;
63959;SDS011;50136;51.374;0.096;2023-02-28T23:27:20;13.48;;;7.57;;
63959;SDS011;50136;51.374;0.096;2023-02-28T23:37:24;14.60;;;9.32;;
63959;SDS011;50136;51.374;0.096;2023-02-28T23:47:26;16.75;;;8.23;;
63959;SDS011;50136;51.374;0.096;2023-02-28T23:57:29;12.65;;;8.18;;
